Time;durP1;ratioP1;P1;durP2;ratioP2;P2;SDS_P1;SDS_P2;PMS_P1;PMS_P2;Temp;Humidity;BMP_temperature;BMP_pressure;BME280_temperature;BME280_humidity;BME280_pressure;Samples;Min_cycle;Max_cycle;Signal;HPM_P1;HPM_P2
2021/05/29 00:01:54;;;;;;;2.50;1.93;;;;;;;;;;4954291;29;20522;-69
2021/05/29 00:07:24;;;;;;;3.27;2.50;;;;;;;;;;4954596;29;20574;-69
2021/05/29 00:09:50;;;;;;;3.63;2.27;;;;;;;;;;4954621;29;20930;-67
2021/05/29 00:12:16;;;;;;;2.70;2.30;;;;;;;;;;4954475;29;20462;-69
2021/05/29 00:14:42;;;;;;;3.20;2.70;;;;;;;;;;4954913;29;20423;-69
2021/05/29 00:17:09;;;;;;;2.63;2.33;;;;;;;;;;4953296;29;20416;-68
2021/05/29 00:19:36;;;;;;;2.30;2.10;;;;;;;;;;4952807;29;20545;-68
2021/05/29 00:22:03;;;;;;;4.47;2.60;;;;;;;;;;4952667;29;20838;-72
2021/05/29 00:24:29;;;;;;;2.80;2.07;;;;;;;;;;4952652;29;20500;-69
2021/05/29 00:26:55;;;;;;;5.30;2.37;;;;;;;;;;4935454;29;20435;-69
2021/05/29 00:29:21;;;;;;;2.27;2.07;;;;;;;;;;4952744;29;20420;-69
2021/05/29 00:31:47;;;;;;;2.67;2.47;;;;;;;;;;4952059;28;20503;-67
2021/05/29 00:37:16;;;;;;;3.00;2.17;;;;;;;;;;4952146;29;20478;-70
2021/05/29 00:39:43;;;;;;;3.07;2.77;;;;;;;;;;4952712;29;20759;-69
2021/05/29 00:42:09;;;;;;;2.37;2.17;;;;;;;;;;4952233;29;20518;-69
2021/05/29 00:45:07;;;;;;;6.50;3.03;;;;;;;;;;4952282;29;20546;-69
2021/05/29 00:47:33;;;;;;;3.80;2.17;;;;;;;;;;4930158;29;20499;-69
2021/05/29 00:50:01;;;;;;;3.10;2.80;;;;;;;;;;4952282;29;20411;-69
2021/05/29 00:52:27;;;;;;;2.73;2.53;;;;;;;;;;4952004;29;20609;-70
2021/05/29 00:54:54;;;;;;;3.87;3.50;;;;;;;;;;4952291;29;20422;-68
2021/05/29 00:57:20;;;;;;;2.83;2.60;;;;;;;;;;4952266;29;20420;-68
2021/05/29 00:59:46;;;;;;;2.90;2.60;;;;;;;;;;4952372;29;20419;-71
2021/05/29 01:02:13;;;;;;;7.70;3.00;;;;;;;;;;4953018;29;20846;-68
2021/05/29 01:04:40;;;;;;;4.67;3.03;;;;;;;;;;4952833;28;20459;-69
2021/05/29 01:07:09;;;;;;;3.50;2.70;;;;;;;;;;4953232;29;20466;-69
2021/05/29 01:09:36;;;;;;;5.27;2.90;;;;;;;;;;4953122;29;20495;-70
2021/05/29 01:12:03;;;;;;;3.90;3.30;;;;;;;;;;4953238;29;20423;-68
2021/05/29 01:14:29;;;;;;;2.70;2.40;;;;;;;;;;4935885;29;20431;-69
2021/05/29 01:16:59;;;;;;;5.33;2.60;;;;;;;;;;4953363;29;20463;-70
2021/05/29 01:22:38;;;;;;;6.63;2.87;;;;;;;;;;4952852;29;20415;-68
2021/05/29 01:25:08;;;;;;;4.83;2.80;;;;;;;;;;4953165;29;20475;-71
2021/05/29 01:27:34;;;;;;;4.63;3.17;;;;;;;;;;4953151;29;20411;-67
2021/05/29 01:30:00;;;;;;;4.07;3.17;;;;;;;;;;4936053;29;20884;-67
2021/05/29 01:32:33;;;;;;;5.53;3.20;;;;;;;;;;4935878;29;20454;-69
2021/05/29 01:35:00;;;;;;;6.47;3.40;;;;;;;;;;4952893;29;20428;-68
2021/05/29 01:37:26;;;;;;;5.10;3.40;;;;;;;;;;4952607;29;20424;-70
2021/05/29 01:39:53;;;;;;;5.30;2.93;;;;;;;;;;4952804;29;20424;-69
2021/05/29 01:42:20;;;;;;;2.97;2.67;;;;;;;;;;4952632;28;20486;-69
2021/05/29 01:44:47;;;;;;;3.13;2.80;;;;;;;;;;4955946;29;20502;-69
2021/05/29 01:47:13;;;;;;;3.60;2.97;;;;;;;;;;4955303;29;20478;-69
2021/05/29 01:52:56;;;;;;;4.63;3.00;;;;;;;;;;4955408;29;20410;-70
2021/05/29 01:55:26;;;;;;;2.57;2.37;;;;;;;;;;4937542;29;20443;-69
2021/05/29 01:57:52;;;;;;;4.20;2.93;;;;;;;;;;4954925;29;20781;-68
2021/05/29 02:00:19;;;;;;;3.53;2.60;;;;;;;;;;4955350;29;20431;-69
2021/05/29 02:02:46;;;;;;;6.00;2.93;;;;;;;;;;4937814;29;20487;-68
2021/05/29 02:05:18;;;;;;;3.97;2.87;;;;;;;;;;4954759;29;20530;-68
2021/05/29 02:07:45;;;;;;;3.77;3.20;;;;;;;;;;4937308;29;20841;-71
2021/05/29 02:10:15;;;;;;;4.67;3.00;;;;;;;;;;4954967;29;20423;-69
2021/05/29 02:12:43;;;;;;;3.33;2.63;;;;;;;;;;4955215;29;20523;-71
2021/05/29 02:15:10;;;;;;;9.23;3.43;;;;;;;;;;4954780;29;20420;-71
2021/05/29 02:17:36;;;;;;;3.87;2.50;;;;;;;;;;4953519;29;20456;-70
2021/05/29 02:23:06;;;;;;;4.03;2.90;;;;;;;;;;4954818;29;20822;-70
2021/05/29 02:25:32;;;;;;;2.67;2.40;;;;;;;;;;4955026;29;20873;-69
2021/05/29 02:27:58;;;;;;;2.70;2.30;;;;;;;;;;4937476;29;20440;-69
2021/05/29 02:30:24;;;;;;;4.67;3.00;;;;;;;;;;4954584;29;20396;-69
2021/05/29 02:32:50;;;;;;;3.60;2.57;;;;;;;;;;4954843;29;20450;-69
2021/05/29 02:35:16;;;;;;;3.77;2.70;;;;;;;;;;4954840;29;20404;-70
2021/05/29 02:37:42;;;;;;;3.00;2.53;;;;;;;;;;4954631;29;20820;-72
2021/05/29 02:40:09;;;;;;;2.70;2.13;;;;;;;;;;4954737;29;20407;-71
2021/05/29 02:42:35;;;;;;;3.47;2.70;;;;;;;;;;4954712;29;20498;-69
2021/05/29 02:45:01;;;;;;;4.33;3.00;;;;;;;;;;4954624;29;20965;-68
2021/05/29 02:47:27;;;;;;;2.67;2.37;;;;;;;;;;4954629;29;20924;-72
2021/05/29 02:52:56;;;;;;;3.33;2.70;;;;;;;;;;4954492;29;20465;-70
2021/05/29 02:55:23;;;;;;;2.37;2.17;;;;;;;;;;4954105;28;20451;-68
2021/05/29 02:57:52;;;;;;;2.90;2.60;;;;;;;;;;4954580;29;20435;-69
2021/05/29 03:00:18;;;;;;;2.70;2.50;;;;;;;;;;4954455;29;20412;-70
2021/05/29 03:02:44;;;;;;;2.80;2.53;;;;;;;;;;4937367;29;20482;-70
2021/05/29 03:08:15;;;;;;;3.50;3.20;;;;;;;;;;4954162;29;20977;-69
2021/05/29 03:10:41;;;;;;;3.23;3.03;;;;;;;;;;4954317;29;20420;-69
2021/05/29 03:13:08;;;;;;;4.20;2.73;;;;;;;;;;4936421;29;20486;-69
2021/05/29 03:15:34;;;;;;;3.30;3.00;;;;;;;;;;4954279;29;20427;-69
2021/05/29 03:18:00;;;;;;;4.70;2.93;;;;;;;;;;4954563;29;20534;-67
2021/05/29 03:23:30;;;;;;;5.23;2.87;;;;;;;;;;4954604;29;20942;-72
2021/05/29 03:25:56;;;;;;;3.50;3.23;;;;;;;;;;4954347;29;20557;-69
2021/05/29 03:28:22;;;;;;;3.00;2.80;;;;;;;;;;4954249;29;20423;-71
2021/05/29 03:30:48;;;;;;;3.30;2.87;;;;;;;;;;4954564;29;20423;-73
2021/05/29 03:33:14;;;;;;;5.00;2.73;;;;;;;;;;4954432;29;20773;-72
2021/05/29 03:35:40;;;;;;;3.13;2.70;;;;;;;;;;4954389;29;20419;-73
2021/05/29 03:38:06;;;;;;;3.00;2.80;;;;;;;;;;4954058;29;20559;-71
2021/05/29 03:40:33;;;;;;;3.37;3.07;;;;;;;;;;4954338;29;20498;-71
2021/05/29 03:42:59;;;;;;;4.40;4.00;;;;;;;;;;4954344;29;20416;-70
2021/05/29 03:45:25;;;;;;;5.50;2.83;;;;;;;;;;4934249;29;20895;-74
2021/05/29 03:47:51;;;;;;;6.63;2.97;;;;;;;;;;4954171;29;20415;-72
2021/05/29 03:53:21;;;;;;;3.23;2.70;;;;;;;;;;4953838;29;20415;-72
2021/05/29 03:55:47;;;;;;;3.43;3.13;;;;;;;;;;4954079;29;20412;-72
2021/05/29 03:58:13;;;;;;;2.93;2.63;;;;;;;;;;4951375;29;20423;-72
2021/05/29 04:00:39;;;;;;;3.43;2.37;;;;;;;;;;4954048;29;20423;-72
2021/05/29 04:03:05;;;;;;;3.53;3.23;;;;;;;;;;4953221;29;20458;-70
2021/05/29 04:08:34;;;;;;;3.17;2.80;;;;;;;;;;4952887;29;20498;-69
2021/05/29 04:11:00;;;;;;;3.20;2.73;;;;;;;;;;4952929;29;20443;-69
2021/05/29 04:13:26;;;;;;;3.67;3.30;;;;;;;;;;4952767;29;20974;-72
2021/05/29 04:15:52;;;;;;;2.93;2.63;;;;;;;;;;4952685;29;20471;-72
2021/05/29 04:18:18;;;;;;;3.20;2.90;;;;;;;;;;4952786;29;20439;-71
2021/05/29 04:23:47;;;;;;;5.07;3.20;;;;;;;;;;4952573;29;20418;-70
2021/05/29 04:26:13;;;;;;;2.60;2.40;;;;;;;;;;4952734;29;20483;-73
2021/05/29 04:28:40;;;;;;;4.90;2.80;;;;;;;;;;4935421;29;20502;-72
2021/05/29 04:31:06;;;;;;;2.90;2.70;;;;;;;;;;4935514;29;20435;-72
2021/05/29 04:33:32;;;;;;;2.70;2.40;;;;;;;;;;4952648;29;20416;-71
2021/05/29 04:39:01;;;;;;;2.80;2.23;;;;;;;;;;4952034;29;20610;-71
2021/05/29 04:41:27;;;;;;;3.33;2.30;;;;;;;;;;4952632;29;20921;-72
2021/05/29 04:43:53;;;;;;;2.37;2.17;;;;;;;;;;4935538;29;20431;-72
2021/05/29 04:46:19;;;;;;;2.93;2.73;;;;;;;;;;4952481;29;20937;-70
2021/05/29 04:48:46;;;;;;;6.40;2.87;;;;;;;;;;4952416;29;20425;-69
2021/05/29 04:54:16;;;;;;;2.43;2.23;;;;;;;;;;4952425;29;20774;-70
2021/05/29 04:56:42;;;;;;;3.27;2.10;;;;;;;;;;4952558;29;20404;-70
2021/05/29 04:59:08;;;;;;;2.70;2.50;;;;;;;;;;4952543;29;20495;-70
2021/05/29 05:01:34;;;;;;;2.37;2.17;;;;;;;;;;4952541;29;20843;-71
2021/05/29 05:04:01;;;;;;;2.70;2.47;;;;;;;;;;4952095;29;20449;-71
2021/05/29 05:06:27;;;;;;;3.63;2.63;;;;;;;;;;4934626;29;20606;-73
2021/05/29 05:08:53;;;;;;;2.80;2.40;;;;;;;;;;4952352;29;20858;-73
2021/05/29 05:11:20;;;;;;;2.97;2.03;;;;;;;;;;4952468;29;20482;-69
2021/05/29 05:13:46;;;;;;;2.47;2.27;;;;;;;;;;4952448;29;20988;-69
2021/05/29 05:16:12;;;;;;;2.70;2.23;;;;;;;;;;4952290;29;20470;-70
2021/05/29 05:18:38;;;;;;;3.30;2.23;;;;;;;;;;4955981;28;20475;-71
2021/05/29 05:24:08;;;;;;;1.93;1.80;;;;;;;;;;4956046;29;20430;-70
2021/05/29 05:26:34;;;;;;;2.30;2.13;;;;;;;;;;4955955;29;20758;-68
2021/05/29 05:29:00;;;;;;;3.20;2.13;;;;;;;;;;4955953;29;20822;-69
2021/05/29 05:31:26;;;;;;;2.30;2.10;;;;;;;;;;4955843;29;20423;-68
2021/05/29 05:33:53;;;;;;;2.77;2.13;;;;;;;;;;4955756;29;20416;-72
2021/05/29 05:39:23;;;;;;;3.07;2.70;;;;;;;;;;4954956;29;20575;-71
2021/05/29 05:41:49;;;;;;;2.50;2.30;;;;;;;;;;4955861;29;20407;-69
2021/05/29 05:44:15;;;;;;;2.90;2.10;;;;;;;;;;4956256;29;20430;-70
2021/05/29 05:46:41;;;;;;;2.37;2.27;;;;;;;;;;4955635;29;20475;-71
2021/05/29 05:49:07;;;;;;;2.97;2.30;;;;;;;;;;4955701;29;20419;-70
2021/05/29 05:54:36;;;;;;;2.00;1.90;;;;;;;;;;4955511;29;20770;-68
2021/05/29 05:57:02;;;;;;;2.00;1.90;;;;;;;;;;4955194;29;20419;-69
2021/05/29 05:59:28;;;;;;;1.90;1.70;;;;;;;;;;4956108;29;20424;-70
2021/05/29 06:01:55;;;;;;;2.20;2.00;;;;;;;;;;4955948;29;20446;-69
2021/05/29 06:04:21;;;;;;;2.40;2.20;;;;;;;;;;4955942;29;20884;-68
2021/05/29 06:06:47;;;;;;;3.00;2.47;;;;;;;;;;4955133;28;20632;-70
2021/05/29 06:09:13;;;;;;;2.43;2.23;;;;;;;;;;4938195;29;20471;-70
2021/05/29 06:11:40;;;;;;;4.23;2.27;;;;;;;;;;4938492;29;20583;-72
2021/05/29 06:19:21;;;;;;;2.23;2.00;;;;;;;;;;4955728;29;20436;-68
2021/05/29 06:24:51;;;;;;;2.70;1.90;;;;;;;;;;4955526;29;20450;-69
2021/05/29 06:27:17;;;;;;;2.77;2.17;;;;;;;;;;4937378;29;20443;-69
2021/05/29 06:29:43;;;;;;;4.40;2.07;;;;;;;;;;4936802;29;20907;-68
2021/05/29 06:32:12;;;;;;;2.20;1.73;;;;;;;;;;4937801;29;20787;-67
2021/05/29 06:34:39;;;;;;;2.23;1.80;;;;;;;;;;4955397;29;20424;-69
2021/05/29 06:37:05;;;;;;;2.10;1.90;;;;;;;;;;4955269;29;20436;-69
2021/05/29 06:39:31;;;;;;;1.57;1.40;;;;;;;;;;4938044;29;20550;-69
2021/05/29 06:41:57;;;;;;;2.63;2.30;;;;;;;;;;4955147;29;20432;-68
2021/05/29 06:44:23;;;;;;;2.60;2.40;;;;;;;;;;4955110;29;20935;-67
2021/05/29 06:46:49;;;;;;;3.63;2.10;;;;;;;;;;4955025;29;20521;-69
2021/05/29 06:49:18;;;;;;;2.63;2.10;;;;;;;;;;4954915;29;20540;-68
2021/05/29 07:00:02;;;;;;;2.10;2.00;;;;;;;;;;4955345;29;20415;-70
2021/05/29 07:02:28;;;;;;;2.23;2.00;;;;;;;;;;4955189;29;20411;-71
2021/05/29 07:04:54;;;;;;;3.03;2.07;;;;;;;;;;4954652;29;20849;-71
2021/05/29 07:07:20;;;;;;;2.50;1.83;;;;;;;;;;4954522;29;20416;-70
2021/05/29 07:09:46;;;;;;;2.47;2.27;;;;;;;;;;4954538;29;20404;-71
2021/05/29 07:12:12;;;;;;;3.23;2.47;;;;;;;;;;4954647;29;20542;-70
2021/05/29 07:14:38;;;;;;;2.20;1.70;;;;;;;;;;4954351;29;20419;-70
2021/05/29 07:17:07;;;;;;;2.47;2.20;;;;;;;;;;4954378;29;20447;-71
2021/05/29 07:19:33;;;;;;;3.57;2.40;;;;;;;;;;4954358;29;20462;-71
2021/05/29 07:25:06;;;;;;;1.90;1.70;;;;;;;;;;4954443;29;20485;-70
2021/05/29 07:27:32;;;;;;;2.37;1.83;;;;;;;;;;4936886;29;20990;-71
2021/05/29 07:29:58;;;;;;;1.70;1.60;;;;;;;;;;4953372;29;20732;-72
2021/05/29 07:32:24;;;;;;;1.90;1.80;;;;;;;;;;4953508;29;20587;-72
2021/05/29 07:40:40;;;;;;;1.70;1.60;;;;;;;;;;4952558;28;20414;-73
2021/05/29 07:43:06;;;;;;;2.10;1.90;;;;;;;;;;4953566;29;20535;-73
2021/05/29 07:45:32;;;;;;;3.70;2.53;;;;;;;;;;4953273;29;20482;-71
2021/05/29 07:47:59;;;;;;;2.13;1.90;;;;;;;;;;4953150;29;20426;-70
2021/05/29 07:50:25;;;;;;;2.50;1.97;;;;;;;;;;4953983;29;20930;-73
2021/05/29 07:52:51;;;;;;;4.20;2.00;;;;;;;;;;4954168;29;20451;-73
2021/05/29 07:55:17;;;;;;;1.90;1.80;;;;;;;;;;4954826;29;20514;-72
2021/05/29 07:57:44;;;;;;;2.63;2.03;;;;;;;;;;4954002;29;20423;-72
2021/05/29 08:00:12;;;;;;;1.97;1.87;;;;;;;;;;4953632;29;20444;-72
2021/05/29 08:02:38;;;;;;;1.73;1.63;;;;;;;;;;4936654;29;20521;-72
2021/05/29 08:10:56;;;;;;;2.03;1.93;;;;;;;;;;4953991;29;20506;-69
2021/05/29 08:13:22;;;;;;;3.30;1.90;;;;;;;;;;4954451;29;20707;-72
2021/05/29 08:15:48;;;;;;;1.70;1.60;;;;;;;;;;4954265;29;20479;-68
2021/05/29 08:18:19;;;;;;;2.80;2.37;;;;;;;;;;4954482;29;20416;-70
2021/05/29 08:20:46;;;;;;;6.23;1.80;;;;;;;;;;4954322;29;20786;-70
2021/05/29 08:23:12;;;;;;;1.83;1.73;;;;;;;;;;4954047;29;20439;-69
2021/05/29 08:25:38;;;;;;;3.00;2.30;;;;;;;;;;4954141;29;20471;-69
2021/05/29 08:28:04;;;;;;;1.43;1.33;;;;;;;;;;4953722;29;20784;-68
2021/05/29 08:30:31;;;;;;;1.70;1.60;;;;;;;;;;4954015;29;20420;-71
2021/05/29 08:32:57;;;;;;;4.27;1.97;;;;;;;;;;4954044;29;20411;-69
2021/05/29 08:35:23;;;;;;;1.80;1.60;;;;;;;;;;4953802;29;20424;-70
2021/05/29 08:40:53;;;;;;;1.70;1.60;;;;;;;;;;4953599;29;20925;-71
2021/05/29 08:43:19;;;;;;;3.57;1.30;;;;;;;;;;4954508;29;20440;-78
2021/05/29 08:45:45;;;;;;;2.37;1.50;;;;;;;;;;4955328;29;20828;-74
2021/05/29 08:48:11;;;;;;;1.47;1.30;;;;;;;;;;4955231;29;20420;-72
2021/05/29 08:50:37;;;;;;;2.40;1.47;;;;;;;;;;4953827;29;20447;-72
2021/05/29 08:53:03;;;;;;;3.43;1.33;;;;;;;;;;4956221;28;20446;-71
2021/05/29 08:55:30;;;;;;;4.03;1.90;;;;;;;;;;4957463;29;20446;-68
2021/05/29 08:57:56;;;;;;;2.67;1.70;;;;;;;;;;4940021;29;20574;-68
2021/05/29 09:00:26;;;;;;;3.00;2.10;;;;;;;;;;4957727;29;20438;-67
2021/05/29 09:02:59;;;;;;;1.97;1.60;;;;;;;;;;4957279;29;20420;-68
2021/05/29 09:11:47;;;;;;;4.20;1.50;;;;;;;;;;4957267;29;20458;-68
2021/05/29 09:14:22;;;;;;;1.70;1.33;;;;;;;;;;4957077;29;20416;-68
2021/05/29 09:17:03;;;;;;;2.87;2.20;;;;;;;;;;4956941;29;20827;-69
2021/05/29 09:19:30;;;;;;;1.67;1.40;;;;;;;;;;4956713;29;20407;-71
2021/05/29 09:21:56;;;;;;;1.80;1.70;;;;;;;;;;4956759;29;20910;-69
2021/05/29 09:24:22;;;;;;;3.00;1.93;;;;;;;;;;4956862;29;20420;-68
2021/05/29 09:26:52;;;;;;;1.87;1.77;;;;;;;;;;4938945;29;20478;-69
2021/05/29 09:29:20;;;;;;;2.20;1.67;;;;;;;;;;4956493;29;20426;-69
2021/05/29 09:32:09;;;;;;;2.60;1.77;;;;;;;;;;4956502;29;20828;-68
2021/05/29 09:34:39;;;;;;;4.13;2.00;;;;;;;;;;4951006;29;20467;-67
2021/05/29 09:37:06;;;;;;;4.07;2.60;;;;;;;;;;4956468;29;20435;-71
2021/05/29 09:39:33;;;;;;;2.53;1.80;;;;;;;;;;4956348;29;20819;-69
2021/05/29 09:42:00;;;;;;;1.97;1.80;;;;;;;;;;4956259;29;20478;-68
2021/05/29 09:44:29;;;;;;;2.80;1.70;;;;;;;;;;4956198;29;20443;-69
2021/05/29 09:46:58;;;;;;;2.10;1.90;;;;;;;;;;4955988;29;20950;-71
2021/05/29 09:49:26;;;;;;;2.10;1.80;;;;;;;;;;4956120;29;20411;-72
2021/05/29 09:51:53;;;;;;;3.07;1.93;;;;;;;;;;4956121;29;20528;-69
2021/05/29 09:54:19;;;;;;;2.53;2.33;;;;;;;;;;4956203;29;20773;-68
2021/05/29 09:56:45;;;;;;;1.60;1.50;;;;;;;;;;4956161;29;20415;-70
2021/05/29 09:59:20;;;;;;;4.47;1.87;;;;;;;;;;4955875;29;20431;-72
2021/05/29 10:01:47;;;;;;;1.63;1.50;;;;;;;;;;4956004;29;20516;-67
2021/05/29 10:04:15;;;;;;;1.57;1.47;;;;;;;;;;4954892;28;20427;-69
2021/05/29 10:06:41;;;;;;;1.47;1.30;;;;;;;;;;4955477;29;20490;-71
2021/05/29 10:09:08;;;;;;;2.97;1.80;;;;;;;;;;4938526;29;20982;-68
2021/05/29 10:11:37;;;;;;;2.13;1.70;;;;;;;;;;4955696;29;20749;-68
2021/05/29 10:14:06;;;;;;;2.70;1.50;;;;;;;;;;4955604;29;20412;-70
2021/05/29 10:16:33;;;;;;;2.27;1.30;;;;;;;;;;4955655;29;20771;-68
2021/05/29 10:19:01;;;;;;;13.80;2.23;;;;;;;;;;4955898;29;20415;-70
2021/05/29 10:21:31;;;;;;;3.20;1.27;;;;;;;;;;4955770;29;20428;-69
2021/05/29 10:23:58;;;;;;;2.63;1.50;;;;;;;;;;4955737;29;20435;-69
2021/05/29 10:26:26;;;;;;;2.97;1.27;;;;;;;;;;4955626;29;20478;-70
2021/05/29 10:28:52;;;;;;;5.47;2.17;;;;;;;;;;4955467;29;20415;-68
2021/05/29 10:31:18;;;;;;;2.50;2.30;;;;;;;;;;4937965;29;20438;-67
2021/05/29 10:33:45;;;;;;;1.73;1.63;;;;;;;;;;4955350;29;20422;-69
2021/05/29 10:42:32;;;;;;;3.03;1.67;;;;;;;;;;4955490;29;20916;-71
2021/05/29 10:45:18;;;;;;;1.80;1.63;;;;;;;;;;4955023;29;20525;-70
2021/05/29 10:48:02;;;;;;;1.93;1.83;;;;;;;;;;4955102;29;20526;-68
2021/05/29 10:53:48;;;;;;;2.60;2.40;;;;;;;;;;4955103;29;20486;-70
2021/05/29 10:56:17;;;;;;;9.27;2.17;;;;;;;;;;4954789;29;20973;-71
2021/05/29 10:59:14;;;;;;;2.77;2.10;;;;;;;;;;4954967;29;20411;-71
2021/05/29 11:01:46;;;;;;;2.80;1.93;;;;;;;;;;4936190;29;20938;-68
2021/05/29 11:04:16;;;;;;;2.60;2.10;;;;;;;;;;4954563;29;20416;-67
2021/05/29 11:09:47;;;;;;;1.90;1.70;;;;;;;;;;4954045;29;20454;-68
2021/05/29 11:12:13;;;;;;;3.90;2.10;;;;;;;;;;4953963;29;20418;-70
2021/05/29 11:14:48;;;;;;;2.20;1.53;;;;;;;;;;4954223;28;20475;-71
2021/05/29 11:17:15;;;;;;;1.67;1.57;;;;;;;;;;4954218;29;20499;-69
2021/05/29 11:19:42;;;;;;;1.70;1.47;;;;;;;;;;4954171;29;20424;-70
2021/05/29 11:25:14;;;;;;;2.20;1.63;;;;;;;;;;4952930;29;20898;-68
2021/05/29 11:27:40;;;;;;;1.90;1.70;;;;;;;;;;4953015;29;20435;-68
2021/05/29 11:30:15;;;;;;;1.83;1.73;;;;;;;;;;4952592;29;20799;-68
2021/05/29 11:35:29;;;;;;;1.20;0.97;;;;;;;;;;4953664;29;20518;-71
2021/05/29 11:41:07;;;;;;;1.67;1.13;;;;;;;;;;4952843;29;20898;-69
2021/05/29 11:43:42;;;;;;;5.07;2.07;;;;;;;;;;4952665;29;20427;-68
2021/05/29 11:46:08;;;;;;;2.87;1.53;;;;;;;;;;4953125;29;20498;-68
2021/05/29 11:48:36;;;;;;;1.63;1.53;;;;;;;;;;4936313;29;20535;-70
2021/05/29 11:51:15;;;;;;;1.77;1.67;;;;;;;;;;4954166;29;20428;-69
2021/05/29 11:56:45;;;;;;;2.10;1.03;;;;;;;;;;4953760;29;20422;-70
2021/05/29 11:59:15;;;;;;;1.50;1.40;;;;;;;;;;4953615;29;20502;-69
2021/05/29 12:01:48;;;;;;;1.33;1.23;;;;;;;;;;4953039;29;20779;-69
2021/05/29 12:04:18;;;;;;;1.40;1.30;;;;;;;;;;4953470;29;20424;-70
2021/05/29 12:06:45;;;;;;;1.37;1.27;;;;;;;;;;4952953;29;20541;-69
2021/05/29 12:12:18;;;;;;;1.77;1.20;;;;;;;;;;4954074;29;20826;-70
2021/05/29 12:14:45;;;;;;;3.83;1.80;;;;;;;;;;4954015;29;20430;-69
2021/05/29 12:17:16;;;;;;;2.60;1.67;;;;;;;;;;4954108;29;20463;-68
2021/05/29 12:19:42;;;;;;;1.17;1.03;;;;;;;;;;4954121;29;20573;-69
2021/05/29 12:22:08;;;;;;;1.73;1.20;;;;;;;;;;4953872;29;20928;-68
2021/05/29 12:27:42;;;;;;;3.47;1.37;;;;;;;;;;4953278;28;20486;-70
2021/05/29 12:30:10;;;;;;;1.20;1.10;;;;;;;;;;4936190;29;20458;-69
2021/05/29 12:32:40;;;;;;;0.93;0.93;;;;;;;;;;4953706;29;20448;-69
2021/05/29 12:35:08;;;;;;;1.10;1.00;;;;;;;;;;4953635;29;20420;-70
2021/05/29 12:37:34;;;;;;;0.70;0.67;;;;;;;;;;4953639;29;20431;-69
2021/05/29 12:40:02;;;;;;;1.20;0.90;;;;;;;;;;4953784;29;20452;-69
2021/05/29 12:42:29;;;;;;;0.80;0.80;;;;;;;;;;4953575;29;20474;-70
2021/05/29 12:44:57;;;;;;;1.30;0.80;;;;;;;;;;4953477;29;20419;-69
2021/05/29 12:47:24;;;;;;;0.80;0.80;;;;;;;;;;4953370;29;20434;-70
2021/05/29 12:49:52;;;;;;;1.60;1.30;;;;;;;;;;4953666;29;20772;-70
2021/05/29 12:52:32;;;;;;;1.00;1.00;;;;;;;;;;4953610;29;20474;-71
2021/05/29 12:54:59;;;;;;;4.17;0.90;;;;;;;;;;4953381;29;20408;-69
2021/05/29 12:57:36;;;;;;;1.77;0.60;;;;;;;;;;4953363;29;20424;-68
2021/05/29 13:00:20;;;;;;;0.93;0.83;;;;;;;;;;4953543;29;20491;-70
2021/05/29 13:11:07;;;;;;;1.60;0.77;;;;;;;;;;4953353;29;20451;-69
2021/05/29 13:13:53;;;;;;;0.70;0.53;;;;;;;;;;4953278;29;20416;-69
2021/05/29 13:16:19;;;;;;;0.80;0.70;;;;;;;;;;4953127;29;20518;-68
2021/05/29 13:18:59;;;;;;;1.37;0.90;;;;;;;;;;4953649;29;20930;-72
2021/05/29 13:21:25;;;;;;;1.13;0.60;;;;;;;;;;4953239;29;20403;-69
2021/05/29 13:23:51;;;;;;;0.70;0.60;;;;;;;;;;4953278;29;20416;-71
2021/05/29 13:26:18;;;;;;;1.33;0.83;;;;;;;;;;4953434;29;20471;-70
2021/05/29 13:28:44;;;;;;;0.90;0.70;;;;;;;;;;4953265;29;20435;-69
2021/05/29 13:31:10;;;;;;;1.07;0.77;;;;;;;;;;4953260;29;20423;-68
2021/05/29 13:33:36;;;;;;;1.17;0.80;;;;;;;;;;4953146;29;20415;-69
2021/05/29 13:36:02;;;;;;;0.80;0.70;;;;;;;;;;4952921;29;20416;-71
2021/05/29 13:38:28;;;;;;;1.10;0.80;;;;;;;;;;4954638;28;20419;-68
2021/05/29 13:40:54;;;;;;;0.50;0.50;;;;;;;;;;4956687;29;20408;-71
2021/05/29 13:43:20;;;;;;;0.83;0.57;;;;;;;;;;4956704;29;20411;-71
2021/05/29 13:45:46;;;;;;;0.97;0.93;;;;;;;;;;4956314;29;20462;-71
2021/05/29 13:48:12;;;;;;;2.00;0.63;;;;;;;;;;4956419;29;20431;-70
2021/05/29 13:50:38;;;;;;;0.63;0.60;;;;;;;;;;4956439;29;20485;-68
2021/05/29 13:53:05;;;;;;;1.53;0.80;;;;;;;;;;4956354;29;20909;-69
2021/05/29 13:55:31;;;;;;;0.70;0.70;;;;;;;;;;4956169;29;20423;-71
2021/05/29 13:57:57;;;;;;;0.60;0.60;;;;;;;;;;4956208;29;20420;-69
2021/05/29 14:00:24;;;;;;;2.90;0.97;;;;;;;;;;4955824;29;20542;-69
2021/05/29 14:02:50;;;;;;;1.20;0.90;;;;;;;;;;4955977;29;20424;-70
2021/05/29 14:05:16;;;;;;;1.03;0.70;;;;;;;;;;4955463;29;20487;-70
2021/05/29 14:07:42;;;;;;;0.60;0.60;;;;;;;;;;4955919;29;20419;-71
2021/05/29 14:10:09;;;;;;;1.50;0.60;;;;;;;;;;4955686;29;20978;-69
2021/05/29 14:12:36;;;;;;;0.60;0.60;;;;;;;;;;4953999;29;20416;-70
2021/05/29 14:15:02;;;;;;;0.63;0.63;;;;;;;;;;4954199;29;20847;-69
2021/05/29 14:17:28;;;;;;;3.80;1.00;;;;;;;;;;4937794;29;20427;-70
2021/05/29 14:19:54;;;;;;;0.77;0.77;;;;;;;;;;4954850;29;20528;-70
2021/05/29 14:22:20;;;;;;;0.80;0.80;;;;;;;;;;4937695;29;20423;-69
2021/05/29 14:27:50;;;;;;;0.90;0.70;;;;;;;;;;4954638;29;20443;-70
2021/05/29 14:30:16;;;;;;;4.70;0.90;;;;;;;;;;4953955;29;20823;-68
2021/05/29 14:32:43;;;;;;;3.00;0.80;;;;;;;;;;4936885;29;20506;-69
2021/05/29 14:35:09;;;;;;;5.50;1.10;;;;;;;;;;4954201;29;20593;-73
2021/05/29 14:37:35;;;;;;;2.00;0.70;;;;;;;;;;4936380;29;20427;-69
2021/05/29 14:43:04;;;;;;;0.97;0.87;;;;;;;;;;4953599;29;20480;-69
2021/05/29 14:45:30;;;;;;;0.80;0.60;;;;;;;;;;4953691;29;20487;-69
2021/05/29 14:47:56;;;;;;;1.33;0.73;;;;;;;;;;4935977;29;20868;-69
2021/05/29 14:50:22;;;;;;;1.83;0.80;;;;;;;;;;4953256;28;20514;-69
2021/05/29 14:52:48;;;;;;;0.73;0.73;;;;;;;;;;4953551;29;20423;-67
2021/05/29 14:58:18;;;;;;;0.97;0.63;;;;;;;;;;4953411;29;20909;-70
2021/05/29 15:00:44;;;;;;;1.80;0.67;;;;;;;;;;4953492;29;20412;-69
2021/05/29 15:03:10;;;;;;;2.87;1.23;;;;;;;;;;4953810;29;20763;-70
2021/05/29 15:05:36;;;;;;;1.90;0.97;;;;;;;;;;4953442;28;20953;-69
2021/05/29 15:08:02;;;;;;;0.93;0.80;;;;;;;;;;4953172;29;20499;-69
2021/05/29 15:13:32;;;;;;;0.73;0.73;;;;;;;;;;4953278;29;20407;-68
2021/05/29 15:15:58;;;;;;;0.60;0.60;;;;;;;;;;4953597;29;20421;-67
2021/05/29 15:18:24;;;;;;;0.70;0.63;;;;;;;;;;4953161;29;20400;-69
2021/05/29 15:23:19;;;;;;;2.40;0.97;;;;;;;;;;4953156;29;20503;-69
2021/05/29 15:28:48;;;;;;;0.90;0.70;;;;;;;;;;4952625;29;20503;-68
2021/05/29 15:31:14;;;;;;;1.30;0.70;;;;;;;;;;4952596;29;20898;-68
2021/05/29 15:33:40;;;;;;;1.40;0.80;;;;;;;;;;4952919;29;20431;-70
2021/05/29 15:36:06;;;;;;;2.53;0.80;;;;;;;;;;4953278;29;20415;-68
2021/05/29 15:38:32;;;;;;;2.40;0.90;;;;;;;;;;4935839;29;20539;-69
2021/05/29 15:40:58;;;;;;;1.97;0.80;;;;;;;;;;4936140;29;20970;-70
2021/05/29 15:43:24;;;;;;;0.53;0.53;;;;;;;;;;4952108;29;20491;-68
2021/05/29 15:45:50;;;;;;;1.67;1.03;;;;;;;;;;4935228;29;20494;-68
2021/05/29 15:48:16;;;;;;;1.17;0.67;;;;;;;;;;4952403;29;20847;-69
2021/05/29 15:51:02;;;;;;;0.87;0.70;;;;;;;;;;4950930;29;20423;-69
2021/05/29 15:53:28;;;;;;;0.77;0.60;;;;;;;;;;4952418;29;20424;-68
2021/05/29 15:58:58;;;;;;;1.53;0.70;;;;;;;;;;4951783;29;20426;-69
2021/05/29 16:01:24;;;;;;;1.67;0.97;;;;;;;;;;4951339;28;20903;-72
2021/05/29 16:03:53;;;;;;;1.27;0.70;;;;;;;;;;4952311;29;20915;-68
2021/05/29 16:06:19;;;;;;;0.90;0.60;;;;;;;;;;4951681;29;20495;-71
2021/05/29 16:08:46;;;;;;;0.87;0.87;;;;;;;;;;4951776;29;20566;-71
2021/05/29 16:11:13;;;;;;;0.93;0.93;;;;;;;;;;4934469;29;20439;-69
2021/05/29 16:13:40;;;;;;;0.77;0.77;;;;;;;;;;4952189;29;20755;-70
2021/05/29 16:16:06;;;;;;;5.20;1.00;;;;;;;;;;4935072;29;20432;-72
2021/05/29 16:18:32;;;;;;;0.70;0.70;;;;;;;;;;4952645;29;20430;-68
2021/05/29 16:20:59;;;;;;;1.37;1.03;;;;;;;;;;4952642;29;20506;-69
2021/05/29 16:23:25;;;;;;;2.63;0.97;;;;;;;;;;4935233;29;20451;-69
2021/05/29 16:28:54;;;;;;;1.80;0.80;;;;;;;;;;4952156;29;20467;-69
2021/05/29 16:31:20;;;;;;;1.77;0.83;;;;;;;;;;4935301;29;20510;-68
2021/05/29 16:33:46;;;;;;;1.53;0.77;;;;;;;;;;4951273;29;20474;-68
2021/05/29 16:36:13;;;;;;;1.27;0.80;;;;;;;;;;4934337;29;20507;-68
2021/05/29 16:38:41;;;;;;;1.33;1.00;;;;;;;;;;4934377;29;20428;-71
2021/05/29 16:44:10;;;;;;;0.83;0.83;;;;;;;;;;4951535;29;20418;-71
2021/05/29 16:46:37;;;;;;;1.47;0.80;;;;;;;;;;4951404;29;20471;-70
2021/05/29 16:49:05;;;;;;;1.77;1.03;;;;;;;;;;4934131;29;20943;-69
2021/05/29 16:51:31;;;;;;;1.30;0.73;;;;;;;;;;4951852;29;20435;-73
2021/05/29 16:53:57;;;;;;;2.03;0.90;;;;;;;;;;4934517;29;20636;-70
2021/05/29 16:59:27;;;;;;;2.83;0.83;;;;;;;;;;4951304;29;20486;-69
2021/05/29 17:01:53;;;;;;;1.53;0.87;;;;;;;;;;4933998;29;20526;-70
2021/05/29 17:04:19;;;;;;;1.77;0.70;;;;;;;;;;4951273;29;20427;-70
2021/05/29 17:06:45;;;;;;;1.83;1.00;;;;;;;;;;4951094;28;20536;-71
2021/05/29 17:09:11;;;;;;;4.00;1.00;;;;;;;;;;4951167;29;20580;-70
2021/05/29 17:11:39;;;;;;;2.40;0.80;;;;;;;;;;4951460;29;20404;-69
2021/05/29 17:14:05;;;;;;;1.30;0.57;;;;;;;;;;4953621;28;20939;-70
2021/05/29 17:16:31;;;;;;;1.10;1.00;;;;;;;;;;4955073;29;20419;-69
2021/05/29 17:18:57;;;;;;;1.40;1.30;;;;;;;;;;4955008;29;20399;-69
2021/05/29 17:21:25;;;;;;;1.70;1.20;;;;;;;;;;4955005;29;20494;-71
2021/05/29 17:23:51;;;;;;;3.73;2.53;;;;;;;;;;4955048;29;20411;-69